createdAt,value
2023-02-13T00:00:21.537Z,104043.28
2023-02-13T00:02:48.158Z,104052.91
2023-02-13T00:05:14.937Z,104046.69
2023-02-13T00:07:41.465Z,104049.25
2023-02-13T00:10:08.673Z,104047.63
2023-02-13T00:12:35.551Z,104042.59
2023-02-13T00:15:02.719Z,104046.84
2023-02-13T00:17:29.554Z,104047.88
2023-02-13T00:19:56.051Z,104043.44
2023-02-13T00:22:22.612Z,104040.72
2023-02-13T00:24:49.050Z,104040.78
2023-02-13T00:27:15.571Z,104038.16
2023-02-13T00:29:42.047Z,104034.75
2023-02-13T00:32:09.273Z,104034.75
2023-02-13T00:34:36.552Z,104025.88
2023-02-13T00:37:03.159Z,104025.22
2023-02-13T00:39:29.662Z,104020.25
2023-02-13T00:41:56.118Z,104028.78
2023-02-13T00:44:22.557Z,104035.00
2023-02-13T00:46:49.114Z,104020.88
2023-02-13T00:49:15.606Z,104021.81
2023-02-13T00:51:42.067Z,104025.09
2023-02-13T00:54:08.619Z,104021.88
2023-02-13T00:56:35.146Z,104026.97
2023-02-13T00:59:01.789Z,104023.50
2023-02-13T01:01:28.516Z,104016.69
2023-02-13T01:03:55.156Z,104021.97
2023-02-13T01:06:21.663Z,104016.50
2023-02-13T01:08:48.108Z,104017.53
2023-02-13T01:11:14.576Z,104021.97
2023-02-13T01:13:41.144Z,104021.38
2023-02-13T01:16:07.777Z,104032.78
2023-02-13T01:18:34.326Z,104015.38
2023-02-13T01:21:06.684Z,104025.28
2023-02-13T01:23:35.722Z,104029.84
2023-02-13T01:26:05.607Z,104020.84
2023-02-13T01:28:32.158Z,104015.47
2023-02-13T01:30:59.237Z,104017.97
2023-02-13T01:33:27.798Z,104017.97
2023-02-13T01:35:54.616Z,104019.56
2023-02-13T01:38:21.460Z,104017.03
2023-02-13T01:40:53.356Z,104013.50
2023-02-13T01:43:23.541Z,104012.84
2023-02-13T01:45:56.333Z,104009.00
2023-02-13T01:48:25.953Z,104013.25
2023-02-13T01:50:59.402Z,103995.97
2023-02-13T01:53:31.491Z,103996.72
2023-02-13T01:56:08.259Z,103999.19
2023-02-13T01:58:39.553Z,104000.81
2023-02-13T02:01:06.809Z,104008.66
2023-02-13T02:03:39.909Z,103998.16
2023-02-13T02:06:11.055Z,104001.75
2023-02-13T02:08:39.041Z,103997.41
2023-02-13T02:11:30.648Z,104001.84
2023-02-13T02:13:58.570Z,103994.91
2023-02-13T02:16:25.914Z,103994.91
2023-02-13T02:18:52.632Z,103992.28
2023-02-13T02:21:31.216Z,103999.09
2023-02-13T02:24:22.064Z,103995.63
2023-02-13T02:27:13.352Z,103997.41
2023-02-13T02:29:59.833Z,103993.81
2023-02-13T02:32:58.678Z,104000.63
2023-02-13T02:35:40.836Z,103997.06
2023-02-13T02:38:26.130Z,103992.03
2023-02-13T02:41:04.956Z,103987.88
2023-02-13T02:43:52.232Z,103989.75
2023-02-13T02:46:38.249Z,103991.34
2023-02-13T02:49:29.098Z,103991.28
2023-02-13T02:52:04.797Z,103985.91
2023-02-13T02:54:53.357Z,103983.25
2023-02-13T02:57:47.544Z,103976.28
2023-02-13T03:00:38.001Z,103983.09
2023-02-13T03:03:28.245Z,103981.38
2023-02-13T03:06:10.637Z,103985.06
2023-02-13T03:08:57.274Z,103976.78
2023-02-13T03:11:42.056Z,103975.06
2023-02-13T03:14:12.502Z,103983.59
2023-02-13T03:16:57.949Z,103979.25
2023-02-13T03:20:16.568Z,103981.88
2023-02-13T03:22:50.466Z,103983.84
2023-02-13T03:25:37.381Z,103988.97
2023-02-13T03:28:36.246Z,103987.16
2023-02-13T03:31:38.050Z,103990.50
2023-02-13T03:34:15.536Z,103995.69
2023-02-13T03:37:03.661Z,103993.16
2023-02-13T03:39:57.787Z,103986.84
2023-02-13T03:42:32.949Z,103977.97
2023-02-13T03:45:22.921Z,103972.03
2023-02-13T03:47:53.233Z,103987.00
2023-02-13T03:50:20.026Z,103986.06
2023-02-13T03:52:54.386Z,103991.34
2023-02-13T03:55:42.248Z,103979.84
2023-02-13T03:58:35.099Z,103975.50
2023-02-13T04:01:05.145Z,103986.75
2023-02-13T04:03:34.091Z,103979.78
2023-02-13T04:06:12.285Z,103981.38
2023-02-13T04:08:38.914Z,103982.25
2023-02-13T04:11:15.063Z,103976.78
2023-02-13T04:13:51.454Z,103976.09
2023-02-13T04:16:23.501Z,103976.28
2023-02-13T04:18:52.553Z,103977.97
2023-02-13T04:21:19.068Z,103976.97
2023-02-13T04:23:45.612Z,103968.28
2023-02-13T04:26:19.580Z,103983.03
2023-02-13T04:28:46.386Z,103977.03
2023-02-13T04:31:13.088Z,103972.84
2023-02-13T04:33:39.855Z,103977.03
2023-02-13T04:36:06.819Z,103991.09
2023-02-13T04:38:33.408Z,103969.13
2023-02-13T04:40:59.996Z,103975.94
2023-02-13T04:43:26.596Z,103972.63
2023-02-13T04:45:53.172Z,103978.50
2023-02-13T04:48:19.662Z,103974.06
2023-02-13T04:50:46.184Z,103973.28
2023-02-13T04:53:12.639Z,103972.34
2023-02-13T04:55:39.104Z,103977.56
2023-02-13T04:58:05.630Z,103971.41
2023-02-13T05:00:32.154Z,103962.56
2023-02-13T05:03:09.208Z,103966.13
2023-02-13T05:05:36.053Z,103954.63
2023-02-13T05:08:02.829Z,103949.34
2023-02-13T05:10:29.809Z,103951.22
2023-02-13T05:12:56.414Z,103962.50
2023-02-13T05:15:23.611Z,103949.19
2023-02-13T05:17:50.105Z,103952.00
2023-02-13T05:20:16.821Z,103951.06
2023-02-13T05:23:05.466Z,103944.81
2023-02-13T05:25:33.205Z,103949.19
2023-02-13T05:27:59.676Z,103948.41
2023-02-13T05:30:26.238Z,103942.53
2023-02-13T05:32:53.067Z,103937.25
2023-02-13T05:35:19.568Z,103942.69
2023-02-13T05:37:46.035Z,103941.75
2023-02-13T05:40:13.569Z,103944.22
2023-02-13T05:42:43.295Z,103944.22
2023-02-13T05:45:10.677Z,103945.94
2023-02-13T05:47:37.252Z,103950.63
2023-02-13T05:50:03.905Z,103949.78
2023-02-13T05:52:30.354Z,103946.22
2023-02-13T05:54:56.813Z,103940.22
2023-02-13T05:57:23.310Z,103949.78
2023-02-13T05:59:49.759Z,103941.16
2023-02-13T06:02:16.248Z,103946.28
2023-02-13T06:04:42.748Z,103944.91
2023-02-13T06:07:09.228Z,103943.03
2023-02-13T06:09:35.859Z,103946.63
2023-02-13T06:12:02.358Z,103947.38
2023-02-13T06:14:28.850Z,103939.63
2023-02-13T06:16:55.371Z,103944.91
2023-02-13T06:19:21.922Z,103936.91
2023-02-13T06:21:48.392Z,103942.19
2023-02-13T06:24:14.951Z,103942.97
2023-02-13T06:26:41.454Z,103950.78
2023-02-13T06:29:09.286Z,103946.28
2023-02-13T06:31:35.871Z,103952.44
2023-02-13T06:34:02.683Z,103953.25
2023-02-13T06:36:29.155Z,103953.44
2023-02-13T06:38:55.652Z,103956.66
2023-02-13T06:41:22.407Z,103967.06
2023-02-13T06:43:48.904Z,103952.09
2023-02-13T06:46:15.389Z,103956.44
2023-02-13T06:48:41.863Z,103952.75
2023-02-13T06:51:08.383Z,103958.03
2023-02-13T06:53:34.904Z,103959.91
2023-02-13T06:56:06.290Z,103961.63
2023-02-13T06:58:34.006Z,103957.28
2023-02-13T07:01:00.863Z,103951.38
2023-02-13T07:03:27.579Z,103962.66
2023-02-13T07:05:54.062Z,103965.28
2023-02-13T07:08:20.599Z,103970.47
2023-02-13T07:10:47.151Z,103967.84
2023-02-13T07:13:13.841Z,103970.47
2023-02-13T07:15:40.520Z,103970.31
2023-02-13T07:18:07.334Z,103969.53
2023-02-13T07:20:34.264Z,103972.44
2023-02-13T07:23:02.769Z,103976.69
2023-02-13T07:25:29.682Z,103974.59
2023-02-13T07:28:01.356Z,103969.31
2023-02-13T07:30:28.099Z,103960.34
2023-02-13T07:32:58.834Z,103961.09
2023-02-13T07:35:25.382Z,103964.50
2023-02-13T07:37:53.544Z,103960.09
2023-02-13T07:40:20.176Z,103958.13
2023-02-13T07:42:46.724Z,103971.09
2023-02-13T07:45:15.404Z,103973.56
2023-02-13T07:47:42.644Z,103975.91
2023-02-13T07:50:10.068Z,103965.28
2023-02-13T07:52:38.007Z,103972.16
2023-02-13T07:55:05.492Z,103975.41
2023-02-13T07:57:32.016Z,103990.91
2023-02-13T07:59:58.486Z,103981.88
2023-02-13T08:02:24.992Z,103983.41
2023-02-13T08:04:51.458Z,103989.03
2023-02-13T08:07:18.516Z,103990.44
2023-02-13T08:10:04.580Z,104000.66
2023-02-13T08:12:32.627Z,104001.25
2023-02-13T08:14:59.131Z,104000.81
2023-02-13T08:17:25.672Z,104000.66
2023-02-13T08:19:52.180Z,103996.78
2023-02-13T08:22:18.669Z,104001.69
2023-02-13T08:24:45.203Z,104007.56
2023-02-13T08:27:13.956Z,104004.66
2023-02-13T08:29:40.650Z,104000.97
2023-02-13T08:32:07.528Z,103997.19
2023-02-13T08:34:34.085Z,103994.09
2023-02-13T08:37:01.867Z,104008.56
2023-02-13T08:39:28.318Z,104010.09
2023-02-13T08:41:54.811Z,104005.38
2023-02-13T08:44:21.276Z,103997.09
2023-02-13T08:46:47.710Z,103989.03
2023-02-13T08:49:14.227Z,103994.81
2023-02-13T08:51:40.803Z,104003.16
2023-02-13T08:54:07.270Z,104013.38
2023-02-13T08:56:33.824Z,103993.56
2023-02-13T08:59:00.478Z,103994.06
2023-02-13T09:01:27.123Z,103998.22
2023-02-13T09:03:55.808Z,104004.44
2023-02-13T09:06:29.702Z,104002.44
2023-02-13T09:09:00.298Z,103991.38
2023-02-13T09:11:27.241Z,103997.31
2023-02-13T09:13:54.339Z,103991.72
2023-02-13T09:16:21.440Z,103992.72
2023-02-13T09:18:49.633Z,103990.91
2023-02-13T09:21:17.701Z,103999.63
2023-02-13T09:23:44.804Z,103997.53
2023-02-13T09:26:13.706Z,104002.63
2023-02-13T09:28:41.133Z,104003.19
2023-02-13T09:31:12.876Z,103992.16
2023-02-13T09:33:39.488Z,103996.25
2023-02-13T09:36:08.182Z,103989.66
2023-02-13T09:38:35.110Z,103993.81
2023-02-13T09:41:10.209Z,103990.69
2023-02-13T09:43:44.859Z,103989.00
2023-02-13T09:46:19.095Z,103992.94
2023-02-13T09:48:49.961Z,103982.97
2023-02-13T09:51:19.311Z,103989.69
2023-02-13T09:54:00.255Z,103989.09
2023-02-13T09:56:38.965Z,103989.09
2023-02-13T09:59:47.002Z,103993.03
2023-02-13T10:02:43.964Z,103997.28
2023-02-13T10:05:31.723Z,103992.47
2023-02-13T10:07:58.156Z,103983.59
2023-02-13T10:10:37.587Z,103994.22
2023-02-13T10:13:46.709Z,103987.44
2023-02-13T10:16:19.445Z,103990.19
2023-02-13T10:19:13.413Z,103992.31
2023-02-13T10:21:50.907Z,103983.31
2023-02-13T10:24:33.983Z,103980.19
2023-02-13T10:27:11.017Z,103981.56
2023-02-13T10:30:06.250Z,103987.81
2023-02-13T10:32:38.141Z,103986.63
2023-02-13T10:35:18.070Z,103977.13
2023-02-13T10:37:50.878Z,103982.56
2023-02-13T10:40:19.112Z,103970.97
2023-02-13T10:42:54.160Z,103977.97
2023-02-13T10:45:58.276Z,103972.22
2023-02-13T10:48:33.859Z,103976.72
2023-02-13T10:51:18.142Z,103966.59
2023-02-13T10:54:21.977Z,103972.28
2023-02-13T10:57:06.904Z,103966.09
2023-02-13T10:59:44.843Z,103961.94
2023-02-13T11:02:22.767Z,103968.44
2023-02-13T11:04:52.344Z,103963.94
2023-02-13T11:07:21.860Z,103956.09
2023-02-13T11:09:50.933Z,103958.50
2023-02-13T11:12:29.775Z,103965.53
2023-02-13T11:15:01.555Z,103947.53
2023-02-13T11:17:46.943Z,103954.44
2023-02-13T11:20:33.548Z,103947.41
2023-02-13T11:23:31.142Z,103949.22
2023-02-13T11:26:11.953Z,103935.63
2023-02-13T11:28:55.417Z,103939.25
2023-02-13T11:31:24.573Z,103951.81
2023-02-13T11:33:51.584Z,103933.38
2023-02-13T11:36:38.341Z,103929.94
2023-02-13T11:39:17.422Z,103936.38
2023-02-13T11:41:46.721Z,103924.94
2023-02-13T11:44:28.430Z,103930.50
2023-02-13T11:46:57.832Z,103925.16
2023-02-13T11:49:50.820Z,103916.22
2023-02-13T11:52:25.078Z,103908.63
2023-02-13T11:55:24.675Z,103910.94
2023-02-13T11:58:10.398Z,103916.13
2023-02-13T12:00:40.406Z,103906.34
2023-02-13T12:03:22.068Z,103898.34
2023-02-13T12:06:18.546Z,103895.78
2023-02-13T12:08:48.379Z,103892.28
2023-02-13T12:11:23.667Z,103894.56
2023-02-13T12:13:51.989Z,103886.81
2023-02-13T12:16:30.992Z,103889.97
2023-02-13T12:19:03.599Z,103886.81
2023-02-13T12:21:56.847Z,103894.47
2023-02-13T12:24:52.676Z,103884.16
2023-02-13T12:27:24.841Z,103880.53
2023-02-13T12:30:00.304Z,103878.59
2023-02-13T12:32:42.085Z,103885.84
2023-02-13T12:35:30.488Z,103880.25
2023-02-13T12:38:04.095Z,103875.16
2023-02-13T12:40:30.465Z,103884.28
2023-02-13T12:43:15.288Z,103884.16
2023-02-13T12:46:05.656Z,103872.50
2023-02-13T12:48:54.095Z,103871.66
2023-02-13T12:51:40.567Z,103877.00
2023-02-13T12:54:50.612Z,103869.31
2023-02-13T12:57:27.701Z,103880.47
2023-02-13T13:00:35.202Z,103864.84
2023-02-13T13:03:35.548Z,103865.78
2023-02-13T13:06:37.680Z,103855.94
2023-02-13T13:09:31.708Z,103862.06
2023-02-13T13:12:19.668Z,103842.09
2023-02-13T13:15:06.527Z,103841.69
2023-02-13T13:18:21.271Z,103844.50
2023-02-13T13:20:56.805Z,103848.13
2023-02-13T13:23:32.110Z,103835.53
2023-02-13T13:26:13.669Z,103830.44
2023-02-13T13:28:47.278Z,103827.38
2023-02-13T13:31:14.178Z,103823.38
2023-02-13T13:33:43.796Z,103819.84
2023-02-13T13:36:32.203Z,103820.09
2023-02-13T13:39:17.463Z,103813.19
2023-02-13T13:41:54.903Z,103813.41
2023-02-13T13:44:42.478Z,103812.41
2023-02-13T13:47:30.780Z,103808.13
2023-02-13T13:50:01.906Z,103806.66
2023-02-13T13:52:33.032Z,103802.28
2023-02-13T13:55:02.483Z,103799.97
2023-02-13T13:57:41.270Z,103809.03
2023-02-13T14:00:13.506Z,103799.84
2023-02-13T14:02:42.713Z,103803.09
2023-02-13T14:05:21.381Z,103799.25
2023-02-13T14:07:54.413Z,103792.19
2023-02-13T14:10:20.870Z,103793.03
2023-02-13T14:12:59.786Z,103790.22
2023-02-13T14:15:29.269Z,103787.94
2023-02-13T14:17:56.204Z,103782.41
2023-02-13T14:20:56.816Z,103781.19
2023-02-13T14:23:37.638Z,103775.09
2023-02-13T14:26:16.242Z,103776.59
2023-02-13T14:28:48.806Z,103775.06
2023-02-13T14:31:23.416Z,103772.19
2023-02-13T14:34:01.859Z,103762.59
2023-02-13T14:36:33.348Z,103763.41
2023-02-13T14:39:25.854Z,103763.59
2023-02-13T14:41:55.172Z,103770.97
2023-02-13T14:44:46.569Z,103765.78
2023-02-13T14:47:30.328Z,103767.47
2023-02-13T14:49:59.379Z,103762.38
2023-02-13T14:52:32.769Z,103758.88
2023-02-13T14:55:04.292Z,103755.06
2023-02-13T14:57:58.097Z,103763.78
2023-02-13T15:00:43.267Z,103757.53
2023-02-13T15:03:37.087Z,103754.75
2023-02-13T15:06:12.506Z,103758.91
2023-02-13T15:08:47.109Z,103752.94
2023-02-13T15:11:35.822Z,103754.75
2023-02-13T15:14:30.237Z,103754.72
2023-02-13T15:17:06.325Z,103761.69
2023-02-13T15:19:36.964Z,103760.00
2023-02-13T15:22:05.617Z,103754.28
2023-02-13T15:24:46.204Z,103757.31
2023-02-13T15:27:19.763Z,103756.31
2023-02-13T15:30:04.214Z,103755.25
2023-02-13T15:32:39.520Z,103751.31
2023-02-13T15:35:31.016Z,103745.53
2023-02-13T15:37:58.541Z,103749.81
2023-02-13T15:40:30.551Z,103738.78
2023-02-13T15:42:57.997Z,103748.94
2023-02-13T15:45:27.539Z,103748.72
2023-02-13T15:47:56.270Z,103740.88
2023-02-13T15:50:30.834Z,103742.97
2023-02-13T15:52:59.683Z,103743.41
2023-02-13T15:55:30.412Z,103742.09
2023-02-13T15:58:00.317Z,103738.78
2023-02-13T16:00:41.031Z,103743.50
2023-02-13T16:03:15.308Z,103754.13
2023-02-13T16:05:41.943Z,103749.50
2023-02-13T16:08:28.455Z,103751.94
2023-02-13T16:11:16.234Z,103755.38
2023-02-13T16:13:56.067Z,103751.78
2023-02-13T16:16:24.101Z,103745.41
2023-02-13T16:18:51.420Z,103754.84
2023-02-13T16:21:26.413Z,103749.53
2023-02-13T16:24:01.465Z,103746.63
2023-02-13T16:26:28.130Z,103743.25
2023-02-13T16:28:55.802Z,103747.59
2023-02-13T16:31:22.762Z,103743.31
2023-02-13T16:33:49.509Z,103750.69
2023-02-13T16:36:15.954Z,103755.09
2023-02-13T16:38:47.296Z,103751.22
2023-02-13T16:41:19.656Z,103752.88
2023-02-13T16:43:55.370Z,103748.13
2023-02-13T16:46:27.968Z,103745.53
2023-02-13T16:48:57.441Z,103747.09
2023-02-13T16:51:30.146Z,103748.50
2023-02-13T16:54:02.054Z,103755.22
2023-02-13T16:56:36.311Z,103746.97
2023-02-13T16:59:18.840Z,103749.34
2023-02-13T17:01:45.374Z,103754.75
2023-02-13T17:04:21.364Z,103756.81
2023-02-13T17:06:47.984Z,103766.50
2023-02-13T17:09:14.519Z,103762.81
2023-02-13T17:11:41.065Z,103769.50
2023-02-13T17:14:07.700Z,103770.97
2023-02-13T17:16:34.452Z,103769.69
2023-02-13T17:19:01.023Z,103778.81
2023-02-13T17:21:27.556Z,103784.13
2023-02-13T17:23:54.051Z,103779.53
2023-02-13T17:26:20.589Z,103790.75
2023-02-13T17:28:47.077Z,103779.06
2023-02-13T17:31:14.217Z,103785.94
2023-02-13T17:33:41.169Z,103783.34
2023-02-13T17:36:09.628Z,103780.72
2023-02-13T17:38:36.119Z,103768.25
2023-02-13T17:41:02.629Z,103767.34
2023-02-13T17:43:30.061Z,103781.72
2023-02-13T17:45:57.160Z,103771.16
2023-02-13T17:48:24.472Z,103771.91
2023-02-13T17:50:51.357Z,103770.16
2023-02-13T17:53:24.744Z,103776.44
2023-02-13T17:55:51.784Z,103770.72
2023-02-13T17:58:18.503Z,103785.31
2023-02-13T18:00:44.954Z,103771.06
2023-02-13T18:03:12.590Z,103778.25
2023-02-13T18:05:40.211Z,103777.75
2023-02-13T18:08:06.871Z,103772.00
2023-02-13T18:10:35.522Z,103778.50
2023-02-13T18:13:06.184Z,103767.34
2023-02-13T18:15:41.948Z,103768.00
2023-02-13T18:18:08.768Z,103777.28
2023-02-13T18:20:35.526Z,103777.19
2023-02-13T18:23:02.066Z,103777.44
2023-02-13T18:25:29.329Z,103781.28
2023-02-13T18:27:55.919Z,103776.78
2023-02-13T18:30:22.543Z,103782.97
2023-02-13T18:32:54.759Z,103788.84
2023-02-13T18:35:23.010Z,103786.13
2023-02-13T18:37:49.745Z,103781.84
2023-02-13T18:40:17.594Z,103783.84
2023-02-13T18:42:44.348Z,103784.06
2023-02-13T18:45:12.122Z,103779.72
2023-02-13T18:47:38.644Z,103777.44
2023-02-13T18:50:05.697Z,103777.09
2023-02-13T18:52:32.213Z,103782.72
2023-02-13T18:54:58.712Z,103785.88
2023-02-13T18:57:25.248Z,103775.47
2023-02-13T18:59:51.750Z,103777.19
2023-02-13T19:02:18.307Z,103774.75
2023-02-13T19:04:44.825Z,103783.91
2023-02-13T19:07:11.395Z,103775.56
2023-02-13T19:09:40.328Z,103775.91
2023-02-13T19:12:08.187Z,103769.94
2023-02-13T19:14:35.028Z,103777.09
2023-02-13T19:17:01.583Z,103764.31
2023-02-13T19:19:28.169Z,103777.63
2023-02-13T19:21:54.736Z,103762.41
2023-02-13T19:24:21.318Z,103773.28
2023-02-13T19:26:47.806Z,103766.63
2023-02-13T19:29:14.281Z,103770.34
2023-02-13T19:31:41.528Z,103770.34
2023-02-13T19:34:08.283Z,103771.38
2023-02-13T19:36:34.921Z,103770.59
2023-02-13T19:39:03.985Z,103776.09
2023-02-13T19:41:30.848Z,103773.44
2023-02-13T19:43:57.501Z,103778.56
2023-02-13T19:46:27.005Z,103771.22
2023-02-13T19:48:54.200Z,103777.78
2023-02-13T19:51:24.168Z,103784.28
2023-02-13T19:53:59.398Z,103779.63
2023-02-13T19:56:27.425Z,103786.25
2023-02-13T19:58:54.383Z,103785.63
2023-02-13T20:01:23.586Z,103778.13
2023-02-13T20:03:50.603Z,103782.50
2023-02-13T20:06:23.032Z,103785.09
2023-02-13T20:08:49.915Z,103776.31
2023-02-13T20:11:17.690Z,103775.78
2023-02-13T20:13:44.152Z,103789.91
2023-02-13T20:16:13.637Z,103782.47
2023-02-13T20:18:41.340Z,103787.22
2023-02-13T20:21:13.021Z,103786.59
2023-02-13T20:23:40.389Z,103786.03
2023-02-13T20:26:13.882Z,103780.06
2023-02-13T20:28:41.754Z,103778.16
2023-02-13T20:31:20.289Z,103777.44
2023-02-13T20:33:48.327Z,103791.50
2023-02-13T20:36:20.865Z,103786.69
2023-02-13T20:38:48.225Z,103787.03
2023-02-13T20:41:20.407Z,103791.63
2023-02-13T20:43:47.170Z,103789.16
2023-02-13T20:46:16.203Z,103794.00
2023-02-13T20:48:44.976Z,103804.78
2023-02-13T20:51:13.133Z,103798.78
2023-02-13T20:53:40.716Z,103805.09
2023-02-13T20:56:12.146Z,103802.59
2023-02-13T20:58:39.703Z,103802.72
2023-02-13T21:01:18.941Z,103798.63
2023-02-13T21:03:49.916Z,103804.69
2023-02-13T21:06:16.492Z,103803.13
2023-02-13T21:08:43.824Z,103806.69
2023-02-13T21:11:10.347Z,103803.34
2023-02-13T21:13:37.009Z,103802.63
2023-02-13T21:16:14.001Z,103809.66
2023-02-13T21:18:41.759Z,103802.81
2023-02-13T21:21:09.961Z,103809.13
2023-02-13T21:23:37.400Z,103813.72
2023-02-13T21:26:06.701Z,103818.97
2023-02-13T21:28:33.494Z,103818.19
2023-02-13T21:31:08.914Z,103822.63
2023-02-13T21:33:35.885Z,103815.56
2023-02-13T21:36:04.485Z,103811.34
2023-02-13T21:38:30.999Z,103813.19
2023-02-13T21:41:08.769Z,103819.16
2023-02-13T21:43:37.703Z,103817.56
2023-02-13T21:46:09.658Z,103821.09
2023-02-13T21:48:37.536Z,103807.41
2023-02-13T21:51:12.537Z,103812.03
2023-02-13T21:53:39.744Z,103805.28
2023-02-13T21:56:10.561Z,103800.28
2023-02-13T21:58:39.176Z,103811.72
2023-02-13T22:01:20.530Z,103798.72
2023-02-13T22:03:52.124Z,103802.38
2023-02-13T22:06:19.987Z,103805.19
2023-02-13T22:08:46.716Z,103800.25
2023-02-13T22:11:13.356Z,103803.88
2023-02-13T22:13:39.835Z,103811.00
2023-02-13T22:16:14.892Z,103814.59
2023-02-13T22:18:43.700Z,103802.56
2023-02-13T22:21:16.201Z,103800.94
2023-02-13T22:23:44.534Z,103805.16
2023-02-13T22:26:15.715Z,103794.84
2023-02-13T22:28:42.684Z,103791.38
2023-02-13T22:31:10.132Z,103793.09
2023-02-13T22:33:36.753Z,103793.13
2023-02-13T22:36:03.980Z,103790.50
2023-02-13T22:38:35.616Z,103782.84
2023-02-13T22:41:22.752Z,103789.03
2023-02-13T22:43:49.692Z,103778.78
2023-02-13T22:46:22.764Z,103784.94
2023-02-13T22:48:53.868Z,103779.72
2023-02-13T22:51:22.872Z,103766.84
2023-02-13T22:53:51.925Z,103778.91
2023-02-13T22:56:18.408Z,103767.72
2023-02-13T22:58:44.874Z,103777.31
2023-02-13T23:01:13.464Z,103770.38
2023-02-13T23:03:40.455Z,103769.69
2023-02-13T23:06:09.106Z,103775.03
2023-02-13T23:08:36.426Z,103772.69
2023-02-13T23:11:32.356Z,103774.50
2023-02-13T23:13:59.188Z,103768.59
2023-02-13T23:16:26.324Z,103769.56
2023-02-13T23:18:57.310Z,103773.22
2023-02-13T23:21:25.404Z,103774.06
2023-02-13T23:23:52.146Z,103769.81
2023-02-13T23:26:19.133Z,103783.88
2023-02-13T23:28:45.730Z,103774.47
2023-02-13T23:31:12.311Z,103772.13
2023-02-13T23:33:38.796Z,103784.31
2023-02-13T23:36:05.716Z,103785.22
2023-02-13T23:38:32.212Z,103779.19
2023-02-13T23:41:06.561Z,103778.41
2023-02-13T23:43:33.044Z,103769.81
2023-02-13T23:45:59.554Z,103776.81
2023-02-13T23:48:26.055Z,103777.78
2023-02-13T23:50:53.189Z,103778.69
2023-02-13T23:53:19.645Z,103782.44
2023-02-13T23:55:46.332Z,103784.28
2023-02-13T23:58:12.803Z,103784.31
